Skip to main content

NOAA/GLERL Met Station at Muskegon, MI

Previous 3 Hours (2 minute increments)
See also Previous 5 Days (top of hour)
Jump down to Data
Switch to [English][Metric]
Zoom: Click and drag, Pan: shift-click and drag, Unzoom: double-click, Unzoom All






See also 1-day windrose plot


NOAA/GLERL Met Station at Muskegon, MI

Previous 3 Hours (2 minute increments)
See also Previous 5 Days (top of hour only)
Jump up to Graphs
Switch to [English][Metric]
                  Wind  Wind  Wind   Air   Dew   Rel     Sta   PAR
                   Spd   Gst   Dir  Temp    Pt   Hum    Pres uE/m2/
YYYY-MM-DD   EDT   kts   kts   deg     F     F     %   in Hg   sec
2021-04-18 05:10   6.0   6.4   355  38.7  35.5  88.2   29.31     2
2021-04-18 05:08   6.0   6.4   354  38.7  35.5  88.2   29.31     2
2021-04-18 05:06   6.0   6.6   353  38.7  35.4  87.9   29.31     2
2021-04-18 05:04   6.2   6.6   351  38.7  35.3  87.4   29.31     2
2021-04-18 05:02   6.6   7.0   351  38.7  35.2  87.2   29.31     2
2021-04-18 05:00   6.4   6.6   352  38.7  35.2  87.2   29.31     2
2021-04-18 04:58   6.2   6.6   353  38.7  35.1  86.9   29.31     2
2021-04-18 04:56   6.4   6.6   352  38.7  35.0  86.6   29.31     2
2021-04-18 04:54   6.2   6.8   355  38.7  34.9  86.1   29.31     2
2021-04-18 04:52   6.6   7.0   351  38.5  34.6  85.6   29.31     2
2021-04-18 04:50   6.6   6.8   351  38.5  34.4  85.1   29.31     2
2021-04-18 04:48   6.6   6.8   351  38.7  34.4  84.5   29.31     2
2021-04-18 04:46   6.4   6.8   353  38.7  34.3  84.1   29.31     2
2021-04-18 04:44   6.4   6.8   354  38.7  34.1  83.3   29.31     2
2021-04-18 04:42   6.6   7.0   353  38.7  33.7  82.1   29.31     2
2021-04-18 04:40   7.0   7.4   353  38.7  33.3  80.7   29.31     2
2021-04-18 04:38   7.0   7.4   354  38.7  32.6  78.7   29.31     2
2021-04-18 04:36   6.6   6.8   352  38.7  32.3  77.8   29.31     2
2021-04-18 04:34   6.4   6.8   350  38.7  32.3  77.5   29.31     2
2021-04-18 04:32   6.4   6.8   350  38.5  32.1  77.7   29.31     2
2021-04-18 04:30   6.0   6.8   351  37.8  31.4  77.7   29.31     2
2021-04-18 04:28   6.0   6.6   349  37.8  30.9  75.9   29.31     2
2021-04-18 04:26   5.8   6.2   351  37.8  30.3  74.2   29.31     2
2021-04-18 04:24   5.4   5.8   350  37.8  29.8  72.8   29.31     2
2021-04-18 04:22   5.4   5.8   347  37.8  29.2  71.0   29.31     2
2021-04-18 04:20   4.7   5.2   345  37.8  29.3  71.1   29.31     2
2021-04-18 04:18   4.5   4.9   345  37.8  29.2  70.8   29.31     2
2021-04-18 04:16   4.1   4.3   346  37.9  29.3  70.8   29.31     2
2021-04-18 04:14   4.3   4.5   349  37.9  29.1  70.1   29.31     2
2021-04-18 04:12   4.5   4.9   355  38.1  28.7  68.5   29.31     2
2021-04-18 04:10   3.9   4.3     2  38.3  28.8  68.4   29.31     2
2021-04-18 04:08   4.1   4.5     1  38.3  28.5  67.5   29.31     2
2021-04-18 04:06   3.9   4.1     4  38.5  28.4  66.7   29.31     2
2021-04-18 04:04   4.1   4.5     4  38.5  28.6  67.2   29.31     2
2021-04-18 04:02   3.9   4.5     4  38.5  28.5  66.9   29.31     2
2021-04-18 04:00   4.3   4.5   360  38.5  28.2  66.2   29.31     2
2021-04-18 03:58   4.3   4.7     1  38.5  28.3  66.4   29.31     2
2021-04-18 03:56   4.3   4.5     2  38.3  28.5  67.5   29.31     2
2021-04-18 03:54   4.1   4.5     1  38.1  29.0  69.3   29.31     2
2021-04-18 03:52   4.1   4.5   359  38.1  29.2  69.9   29.31     2
2021-04-18 03:50   4.5   4.7   360  37.9  29.0  69.8   29.31     2
2021-04-18 03:48   4.3   4.7   359  37.6  28.7  69.9   29.31     2
2021-04-18 03:46   3.7   4.3   354  37.6  28.7  69.9   29.31     2
2021-04-18 03:44   3.5   3.9   356  37.6  28.5  69.4   29.31     2
2021-04-18 03:42   4.1   4.5   358  37.8  28.4  68.6   29.31     2
2021-04-18 03:40   4.5   5.4   354  37.9  28.4  68.3   29.31     2
2021-04-18 03:38   4.9   5.2   346  38.1  28.3  67.5   29.31     2
2021-04-18 03:36   4.9   5.4     2  38.7  28.4  66.2   29.31     2
2021-04-18 03:34   4.5   4.7    15  39.0  28.5  65.6   29.31     2
2021-04-18 03:32   4.3   4.7    13  39.2  28.8  66.0   29.31     2
2021-04-18 03:30   4.3   4.7    23  39.6  29.1  65.8   29.31     2
2021-04-18 03:28   3.9   4.3    32  39.7  28.9  64.8   29.31     2
2021-04-18 03:26   3.1   3.9    39  39.9  28.6  63.5   29.31     2
2021-04-18 03:24   3.1   3.5    43  40.1  28.2  62.2   29.31     2
2021-04-18 03:22   2.7   3.7    37  40.3  28.3  61.9   29.31     2
2021-04-18 03:20   2.3   3.7    19  40.3  28.7  63.0   29.31     2
2021-04-18 03:18   2.1   2.9     0  40.1  29.1  64.4   29.31     2
2021-04-18 03:16   2.7   3.7   350  39.9  29.4  65.7   29.31     2
2021-04-18 03:14   2.1   3.1    10  39.7  29.5  66.5   29.31     2
2021-04-18 03:12   2.3   2.7    45  39.9  29.6  66.3   29.31     2
2021-04-18 03:10   4.9   6.4    66  40.1  29.1  64.5   29.31     2
2021-04-18 03:08   6.2   6.8    68  40.1  28.8  63.6   29.31     2
2021-04-18 03:06   6.4   7.4    73  40.1  28.5  63.0   29.31     2
2021-04-18 03:04   7.4   8.0    73  40.3  28.5  62.4   29.31     2
2021-04-18 03:02   7.4   8.2    72  40.3  28.4  62.1   29.31     2
2021-04-18 03:00   7.8   8.6    71  40.3  28.3  61.9   29.31     2
2021-04-18 02:58   7.0   8.6    76  40.3  28.1  61.4   29.31     2
2021-04-18 02:56   6.6   7.6    74  40.3  28.0  61.2   29.31     2
2021-04-18 02:54   6.4   7.8    73  40.3  28.1  61.4   29.31     2
2021-04-18 02:52   6.4   8.0    72  40.1  28.0  61.6   29.31     2
2021-04-18 02:50   6.0   7.4    70  40.1  28.1  61.8   29.31     2
2021-04-18 02:48   5.8   7.2    69  40.1  28.2  62.1   29.31     2
2021-04-18 02:46   5.8   7.0    69  39.9  28.2  62.5   29.31     2
2021-04-18 02:44   6.0   7.6    64  40.1  28.3  62.3   29.31     2
2021-04-18 02:42   6.4   7.4    64  40.1  28.3  62.3   29.31     2
2021-04-18 02:40   6.6   8.0    67  40.1  28.3  62.3   29.31     2
2021-04-18 02:38   6.4   8.2    65  40.1  28.1  62.0   29.31     2
2021-04-18 02:36   6.0   7.8    64  40.3  28.2  61.8   29.31     2
2021-04-18 02:34   6.4   8.2    62  40.3  28.3  62.0   29.31     2
2021-04-18 02:32   6.2   7.8    65  40.3  28.3  61.9   29.31     2
2021-04-18 02:30   6.4   7.8    63  40.3  28.2  61.8   29.31     2
2021-04-18 02:28   6.4   8.2    63  40.3  28.2  61.7   29.31     2
2021-04-18 02:26   6.4   8.2    60  40.5  28.4  61.7   29.31     2
2021-04-18 02:24   6.0   7.6    57  40.6  28.5  61.5   29.31     2
2021-04-18 02:22   5.6   6.6    60  40.8  28.6  61.4   29.31     2
2021-04-18 02:20   5.6   7.6    56  41.0  28.6  60.9   29.31     2
2021-04-18 02:18   5.6   8.2    53  41.0  28.3  60.2   29.31     2
2021-04-18 02:16   6.2   7.4    52  41.0  28.2  60.0   29.31     2
2021-04-18 02:14   6.4   7.6    49  41.0  28.2  60.1   29.32     2
2021-04-18 02:12   6.2   7.6    48  41.0  28.2  60.1   29.32     2
2021-04-18 02:10   6.8   8.6    48  41.0  28.4  60.5   29.32     2